Time;durP1;ratioP1;P1;durP2;ratioP2;P2;SDS_P1;SDS_P2;PMS_P1;PMS_P2;Temp;Humidity;BMP_temperature;BMP_pressure;BME280_temperature;BME280_humidity;BME280_pressure;Samples;Min_cycle;Max_cycle;Signal;HPM_P1;HPM_P2
2021/09/24 00:02:23;;;;;;;;;3.25;2.00;;;;;25.50;41.41;101876.13;5077645;27;45390;-67
2021/09/24 00:04:48;;;;;;;;;2.00;2.00;;;;;25.46;41.41;101866.00;5076876;27;45470;-67
2021/09/24 00:07:14;;;;;;;;;2.50;2.00;;;;;25.46;41.59;101864.19;5076670;27;45415;-67
2021/09/24 00:09:39;;;;;;;;;3.75;3.75;;;;;25.42;41.50;101867.38;5075836;27;46175;-66
2021/09/24 00:12:04;;;;;;;;;2.25;2.25;;;;;25.46;41.38;101874.00;5077042;27;45355;-67
2021/09/24 00:14:30;;;;;;;;;3.00;2.00;;;;;25.37;41.52;101851.94;5076884;27;45500;-67
2021/09/24 00:16:55;;;;;;;;;2.25;2.00;;;;;25.46;41.52;101861.53;5079259;27;45389;-67
2021/09/24 00:19:21;;;;;;;;;3.50;3.50;;;;;25.46;41.47;101860.69;5077068;27;45968;-66
2021/09/24 00:21:46;;;;;;;;;3.50;3.50;;;;;25.44;41.67;101866.19;5073853;27;45493;-66
2021/09/24 00:24:12;;;;;;;;;6.00;5.75;;;;;25.43;41.54;101861.88;5076440;27;45346;-66
2021/09/24 00:26:37;;;;;;;;;7.75;4.00;;;;;25.43;41.66;101850.38;5078745;27;45378;-66
2021/09/24 00:29:03;;;;;;;;;5.00;5.00;;;;;25.39;41.68;101839.28;5083839;27;46119;-66
2021/09/24 00:31:28;;;;;;;;;6.50;4.25;;;;;25.44;41.81;101842.22;5072292;27;45393;-67
2021/09/24 00:33:53;;;;;;;;;4.50;4.00;;;;;25.50;41.49;101848.69;5070858;28;45322;-67
2021/09/24 00:36:19;;;;;;;;;3.75;3.75;;;;;25.47;41.42;101838.38;5065551;28;45408;-67
2021/09/24 00:38:44;;;;;;;;;3.25;3.25;;;;;25.61;41.49;101839.41;5060536;28;47216;-67
2021/09/24 00:41:10;;;;;;;;;4.75;3.25;;;;;25.66;41.35;101839.69;5061317;28;45265;-67
2021/09/24 00:43:36;;;;;;;;;4.75;4.00;;;;;25.70;41.20;101826.84;5063113;28;45289;-67
2021/09/24 00:46:03;;;;;;;;;3.75;3.25;;;;;25.77;41.27;101832.28;5063551;28;45470;-67
2021/09/24 00:48:29;;;;;;;;;4.00;4.00;;;;;25.81;41.05;101830.94;5063238;28;49826;-67
2021/09/24 00:50:55;;;;;;;;;2.25;2.25;;;;;25.84;41.02;101836.72;5061663;28;47960;-67
2021/09/24 00:53:20;;;;;;;;;3.00;2.25;;;;;25.88;41.08;101821.19;5060727;28;45437;-67
2021/09/24 00:55:47;;;;;;;;;4.50;3.50;;;;;25.83;41.03;101803.09;5062066;28;45641;-67
2021/09/24 00:58:12;;;;;;;;;3.00;3.00;;;;;25.92;40.91;101814.47;5063213;28;46580;-67
2021/09/24 01:00:38;;;;;;;;;4.00;3.50;;;;;25.99;40.73;101819.91;5063006;28;45549;-67
2021/09/24 01:03:03;;;;;;;;;3.00;3.00;;;;;26.02;40.57;101816.06;5063070;28;45572;-67
2021/09/24 01:05:29;;;;;;;;;2.00;2.00;;;;;26.04;40.64;101806.84;5059126;28;45355;-67
2021/09/24 01:07:55;;;;;;;;;2.75;2.75;;;;;26.07;40.61;101800.34;5076726;28;46267;-67
2021/09/24 01:10:21;;;;;;;;;3.25;3.00;;;;;26.10;40.47;101805.28;5070669;27;45335;-67
2021/09/24 01:12:46;;;;;;;;;3.25;3.25;;;;;26.09;40.91;101794.81;5075755;28;45443;-67
2021/09/24 01:15:15;;;;;;;;;5.75;4.75;;;;;26.14;40.50;101801.25;5075790;27;45329;-67
2021/09/24 01:17:41;;;;;;;;;4.75;3.75;;;;;26.16;40.63;101806.38;5075327;27;46288;-67
2021/09/24 01:20:09;;;;;;;;;2.00;2.00;;;;;26.17;40.37;101808.03;5076810;27;45351;-67
2021/09/24 01:22:35;;;;;;;;;4.25;4.25;;;;;26.18;40.83;101807.00;5062242;28;45470;-68
2021/09/24 01:25:01;;;;;;;;;2.50;2.25;;;;;26.20;40.36;101807.69;5062587;28;45384;-67
2021/09/24 01:27:26;;;;;;;;;4.50;3.25;;;;;25.94;40.18;101756.44;5062793;28;45379;-67
2021/09/24 01:29:55;;;;;;;;;3.00;3.00;;;;;26.22;40.19;101800.31;5060807;28;45238;-67
2021/09/24 01:32:21;;;;;;;;;2.25;2.25;;;;;26.23;40.48;101799.28;5059915;28;45608;-67
2021/09/24 01:34:47;;;;;;;;;2.75;2.75;;;;;26.24;40.10;101800.13;5061744;28;45380;-68
2021/09/24 01:37:12;;;;;;;;;4.75;3.75;;;;;26.26;40.15;101798.09;5062569;28;45603;-67
2021/09/24 01:39:38;;;;;;;;;4.25;3.00;;;;;26.26;40.53;101798.09;5065721;28;45349;-67
2021/09/24 01:42:04;;;;;;;;;3.50;2.00;;;;;26.26;40.28;101796.25;5071640;28;45681;-67
2021/09/24 01:44:29;;;;;;;;;3.00;3.00;;;;;26.28;40.28;101790.75;5058693;28;45335;-67
2021/09/24 01:46:55;;;;;;;;;4.00;3.00;;;;;26.29;40.38;101792.38;5057180;27;46205;-67
2021/09/24 01:49:20;;;;;;;;;4.00;4.00;;;;;26.30;40.20;101786.03;5059221;28;45387;-68
2021/09/24 01:51:47;;;;;;;;;3.25;3.25;;;;;26.30;39.91;101794.03;5062197;28;45431;-67
2021/09/24 01:54:15;;;;;;;;;4.00;3.00;;;;;26.30;40.09;101786.03;5062559;28;45430;-67
2021/09/24 01:56:41;;;;;;;;;3.00;3.00;;;;;26.30;40.23;101786.03;5058796;28;46112;-67
2021/09/24 01:59:06;;;;;;;;;2.25;2.25;;;;;26.31;40.09;101785.00;5076289;27;45351;-67
2021/09/24 02:01:32;;;;;;;;;5.50;4.25;;;;;26.32;40.15;101784.00;5070634;28;45360;-67
2021/09/24 02:03:57;;;;;;;;;3.25;3.00;;;;;26.33;40.32;101790.19;5074761;27;45316;-67
2021/09/24 02:06:22;;;;;;;;;2.25;2.25;;;;;26.27;39.78;101778.41;5074823;27;45552;-67
2021/09/24 02:08:48;;;;;;;;;4.00;3.00;;;;;26.34;39.88;101791.81;5074922;27;45411;-68
2021/09/24 02:11:14;;;;;;;;;3.25;3.00;;;;;26.29;39.86;101777.22;5075957;27;45213;-67
2021/09/24 02:13:42;;;;;;;;;2.25;2.25;;;;;26.37;39.90;101791.44;5076063;28;45536;-67
2021/09/24 02:16:08;;;;;;;;;2.00;2.00;;;;;26.37;39.82;101789.63;5074268;27;45434;-67
2021/09/24 02:18:34;;;;;;;;;2.00;2.00;;;;;26.38;40.05;101785.13;5074664;27;45538;-67
2021/09/24 02:20:59;;;;;;;;;3.50;3.00;;;;;26.38;40.12;101788.63;5073549;27;45569;-67
2021/09/24 02:23:25;;;;;;;;;3.00;3.00;;;;;26.39;40.11;101792.91;5074824;27;45742;-67
2021/09/24 02:25:50;;;;;;;;;3.75;3.75;;;;;26.40;39.86;101791.09;5075959;27;45425;-68
2021/09/24 02:28:15;;;;;;;;;3.00;3.00;;;;;26.40;40.15;101788.41;5074129;27;47814;-67
2021/09/24 02:30:41;;;;;;;;;3.00;3.00;;;;;26.41;40.00;101784.75;5072760;27;45497;-67
2021/09/24 02:33:06;;;;;;;;;2.75;2.75;;;;;26.41;40.17;101785.53;5074826;28;45465;-67
2021/09/24 02:35:32;;;;;;;;;4.00;3.00;;;;;26.43;40.11;101785.38;5074282;27;47085;-67
2021/09/24 02:37:57;;;;;;;;;2.00;2.00;;;;;26.43;39.99;101793.38;5076325;28;45365;-67
2021/09/24 02:40:22;;;;;;;;;2.00;2.00;;;;;26.43;39.86;101790.72;5074415;27;45580;-67
2021/09/24 02:42:48;;;;;;;;;3.00;3.00;;;;;26.40;39.73;101786.56;5074455;27;45425;-68
2021/09/24 02:45:13;;;;;;;;;2.75;2.75;;;;;26.43;39.90;101788.03;5073819;27;46048;-67
2021/09/24 02:47:38;;;;;;;;;2.00;2.00;;;;;26.44;39.85;101788.91;5074413;27;45592;-67
2021/09/24 02:50:06;;;;;;;;;6.25;2.00;;;;;26.44;40.04;101789.72;5076463;27;45315;-67
2021/09/24 02:52:32;;;;;;;;;2.50;2.50;;;;;26.37;39.84;101776.28;5074701;28;45637;-67
2021/09/24 02:54:57;;;;;;;;;2.00;2.00;;;;;26.43;39.77;101781.88;5073803;27;47171;-67
2021/09/24 02:57:23;;;;;;;;;2.00;2.00;;;;;26.45;40.15;101785.22;5074248;27;45687;-67
2021/09/24 02:59:48;;;;;;;;;2.00;2.00;;;;;26.44;39.74;101781.72;5073713;27;45304;-68
2021/09/24 03:02:13;;;;;;;;;3.00;3.00;;;;;26.45;39.79;101774.53;5075229;27;45346;-67
2021/09/24 03:04:39;;;;;;;;;3.00;2.00;;;;;26.43;40.02;101777.38;5074460;28;45370;-67
2021/09/24 03:07:04;;;;;;;;;3.75;3.00;;;;;26.40;39.80;101772.41;5070866;28;45832;-68
2021/09/24 03:09:29;;;;;;;;;2.00;2.00;;;;;26.45;40.06;101783.38;5072600;27;45360;-67
2021/09/24 03:11:55;;;;;;;;;2.00;2.00;;;;;26.44;39.71;101781.72;5074039;27;45447;-68
2021/09/24 03:14:20;;;;;;;;;2.00;2.00;;;;;26.45;39.83;101779.88;5073548;27;45992;-67
2021/09/24 03:16:46;;;;;;;;;2.00;2.00;;;;;26.44;40.06;101784.38;5075867;28;45409;-67
2021/09/24 03:19:14;;;;;;;;;2.25;2.25;;;;;26.45;39.79;101790.53;5074025;27;45664;-67
2021/09/24 03:21:39;;;;;;;;;1.75;1.50;;;;;26.44;39.65;101781.72;5073800;27;45379;-67
2021/09/24 03:24:05;;;;;;;;;2.75;2.75;;;;;26.45;39.92;101777.19;5073734;27;47457;-67
2021/09/24 03:26:32;;;;;;;;;2.75;2.75;;;;;26.45;39.91;101778.03;5073867;27;45256;-68
2021/09/24 03:28:57;;;;;;;;;2.00;2.00;;;;;26.44;39.86;101784.38;5075007;27;45250;-67
2021/09/24 03:31:22;;;;;;;;;3.25;3.25;;;;;26.45;39.81;101780.69;5073712;27;45268;-67
2021/09/24 03:33:48;;;;;;;;;2.25;2.25;;;;;26.44;39.62;101776.38;5076328;27;46387;-67
2021/09/24 03:36:13;;;;;;;;;2.75;2.75;;;;;26.37;39.88;101759.44;5077239;27;45371;-67
2021/09/24 03:38:38;;;;;;;;;3.50;2.00;;;;;26.45;39.79;101771.88;5077482;27;45414;-67
2021/09/24 03:41:04;;;;;;;;;2.75;1.75;;;;;26.46;39.93;101771.69;5079201;27;45252;-67
2021/09/24 03:43:29;;;;;;;;;2.75;2.75;;;;;26.47;39.93;101776.00;5076696;27;45426;-68
2021/09/24 03:45:54;;;;;;;;;2.00;1.00;;;;;26.47;39.76;101768.00;5077146;27;45354;-68
2021/09/24 03:48:20;;;;;;;;;2.50;2.50;;;;;26.47;39.93;101759.16;5075646;27;45420;-67
2021/09/24 03:50:45;;;;;;;;;1.67;1.67;;;;;26.45;39.75;101759.34;5077282;27;45560;-67
2021/09/24 03:53:10;;;;;;;;;3.00;3.00;;;;;26.49;39.48;101767.81;5078314;27;46205;-67
2021/09/24 03:55:36;;;;;;;;;3.00;2.00;;;;;26.48;39.90;101767.00;5077386;28;45405;-68
2021/09/24 03:58:01;;;;;;;;;2.00;2.00;;;;;26.49;40.01;101759.81;5076774;27;45489;-67
2021/09/24 04:00:26;;;;;;;;;2.00;2.00;;;;;26.49;39.98;101765.97;5076745;27;45382;-67
2021/09/24 04:02:52;;;;;;;;;2.50;2.50;;;;;26.49;39.91;101760.63;5076851;27;46168;-68
2021/09/24 04:05:17;;;;;;;;;2.00;2.00;;;;;26.49;39.67;101762.50;5077307;27;45484;-67
2021/09/24 04:07:43;;;;;;;;;4.00;4.00;;;;;26.49;39.81;101752.63;5078230;28;45611;-67
2021/09/24 04:10:08;;;;;;;;;3.25;2.50;;;;;26.50;39.69;101764.13;5076914;27;45579;-68
2021/09/24 04:12:34;;;;;;;;;2.50;2.00;;;;;26.49;40.06;101767.81;5076124;27;46324;-67
2021/09/24 04:15:00;;;;;;;;;2.00;2.00;;;;;26.49;39.73;101767.81;5076833;28;45334;-67
2021/09/24 04:17:25;;;;;;;;;2.00;2.00;;;;;26.49;39.83;101767.81;5076706;28;45536;-68
2021/09/24 04:19:51;;;;;;;;;1.75;1.75;;;;;26.50;39.89;101772.13;5078538;27;45481;-67
2021/09/24 04:22:16;;;;;;;;;2.00;2.00;;;;;26.47;40.11;101762.66;5076196;27;47186;-69
2021/09/24 04:24:42;;;;;;;;;2.00;2.00;;;;;26.49;39.84;101765.16;5076612;27;45521;-69
2021/09/24 04:27:07;;;;;;;;;2.00;2.00;;;;;26.49;39.87;101765.97;5074783;27;45490;-68
2021/09/24 04:29:33;;;;;;;;;3.75;2.50;;;;;26.50;40.25;101769.47;5076575;27;45530;-68
2021/09/24 04:31:58;;;;;;;;;2.00;2.00;;;;;26.50;39.79;101764.13;5078016;28;47200;-68
2021/09/24 04:34:24;;;;;;;;;2.00;2.00;;;;;26.48;39.76;101748.31;5076341;27;45323;-68
2021/09/24 04:36:49;;;;;;;;;2.00;2.00;;;;;26.49;40.25;101749.16;5076388;27;45362;-69
2021/09/24 04:39:15;;;;;;;;;1.00;1.00;;;;;26.49;39.65;101763.28;5076422;27;45423;-68
2021/09/24 04:41:40;;;;;;;;;2.00;2.00;;;;;26.49;39.68;101765.16;5075771;27;46805;-68
2021/09/24 04:44:05;;;;;;;;;2.50;2.25;;;;;26.48;39.75;101759.00;5077133;27;45436;-68
2021/09/24 04:46:31;;;;;;;;;4.00;3.00;;;;;26.40;40.03;101749.22;5076537;28;45515;-68
2021/09/24 04:48:57;;;;;;;;;2.00;2.00;;;;;26.49;39.55;101762.50;5076019;27;45464;-68
2021/09/24 04:51:23;;;;;;;;;2.00;2.00;;;;;26.48;39.77;101759.00;5076052;27;46243;-68
2021/09/24 04:53:48;;;;;;;;;2.00;2.00;;;;;26.49;39.75;101763.28;5076032;27;45500;-68
2021/09/24 04:56:13;;;;;;;;;1.50;1.00;;;;;26.49;39.84;101759.81;5076874;27;45410;-69
2021/09/24 04:58:39;;;;;;;;;2.25;2.25;;;;;26.48;40.12;101761.66;5076799;28;45437;-68
2021/09/24 05:01:04;;;;;;;;;1.25;1.25;;;;;26.48;39.76;101764.31;5075712;27;46274;-68
2021/09/24 05:03:29;;;;;;;;;3.00;3.00;;;;;26.46;39.61;101763.69;5075789;27;45433;-68
2021/09/24 05:05:54;;;;;;;;;2.00;2.00;;;;;26.49;39.89;101765.97;5076431;27;45480;-68
2021/09/24 05:08:20;;;;;;;;;2.00;2.00;;;;;26.40;39.63;101749.22;5075865;27;45501;-68
2021/09/24 05:10:45;;;;;;;;;2.25;2.00;;;;;26.50;40.02;101764.97;5077252;27;45390;-69
2021/09/24 05:13:11;;;;;;;;;1.50;1.50;;;;;26.39;40.03;101742.22;5075997;27;45468;-67
2021/09/24 05:15:36;;;;;;;;;2.75;1.00;;;;;26.40;39.92;101748.41;5075625;27;45330;-68
2021/09/24 05:18:02;;;;;;;;;2.00;2.00;;;;;26.41;39.49;101737.53;5075902;27;45317;-67
2021/09/24 05:20:29;;;;;;;;;4.00;2.00;;;;;26.51;39.82;101755.94;5075444;27;45981;-68
2021/09/24 05:22:54;;;;;;;;;2.00;2.00;;;;;26.49;39.52;101757.94;5077392;27;45342;-68
2021/09/24 05:25:21;;;;;;;;;2.00;2.00;;;;;26.51;39.76;101760.44;5075195;27;45480;-68
2021/09/24 05:27:47;;;;;;;;;2.00;2.00;;;;;26.47;39.63;101764.50;5075571;27;45599;-68
2021/09/24 05:30:12;;;;;;;;;2.50;2.50;;;;;26.48;40.04;101753.66;5075186;27;46067;-68
2021/09/24 05:32:38;;;;;;;;;2.00;2.00;;;;;26.50;39.87;101754.28;5075554;27;45550;-68
2021/09/24 05:35:04;;;;;;;;;3.00;3.00;;;;;26.52;40.01;101762.09;5077366;27;45519;-67
2021/09/24 05:37:30;;;;;;;;;1.75;1.25;;;;;26.49;40.17;101749.94;5075129;27;45598;-68
2021/09/24 05:39:56;;;;;;;;;4.00;2.75;;;;;26.51;39.83;101755.13;5074783;27;47367;-68
2021/09/24 05:42:21;;;;;;;;;2.75;2.75;;;;;26.51;39.85;101763.13;5075021;27;45308;-69
2021/09/24 05:44:47;;;;;;;;;2.50;2.50;;;;;26.51;40.04;101771.13;5073769;28;45517;-68
2021/09/24 05:47:12;;;;;;;;;4.00;2.00;;;;;26.49;39.62;101760.63;5076570;27;45382;-69
2021/09/24 05:49:38;;;;;;;;;2.00;0.25;;;;;26.49;39.89;101757.94;5075705;28;47158;-68
2021/09/24 05:52:03;;;;;;;;;2.33;2.00;;;;;26.50;39.91;101764.97;5075150;27;45446;-68
2021/09/24 05:54:29;;;;;;;;;2.50;2.00;;;;;26.51;39.57;101773.78;5074867;28;45449;-68
2021/09/24 05:56:57;;;;;;;;;3.00;2.00;;;;;26.50;39.83;101775.63;5075181;27;45415;-68
2021/09/24 05:59:22;;;;;;;;;1.50;1.50;;;;;26.45;39.69;101771.88;5074787;27;46064;-68
2021/09/24 06:01:48;;;;;;;;;1.25;1.25;;;;;26.49;39.79;101776.63;5076518;28;45349;-68
2021/09/24 06:04:18;;;;;;;;;1.75;1.75;;;;;26.40;39.87;101759.91;5075005;27;45472;-68
2021/09/24 06:06:44;;;;;;;;;1.25;1.25;;;;;26.49;39.86;101786.50;5074884;27;45488;-68
2021/09/24 06:09:09;;;;;;;;;2.00;2.00;;;;;26.43;40.22;101771.19;5074199;27;47234;-67
2021/09/24 06:11:35;;;;;;;;;2.00;2.00;;;;;26.49;39.86;101783.84;5074883;27;45508;-68
2021/09/24 06:14:01;;;;;;;;;2.75;2.75;;;;;26.47;39.68;101776.00;5076756;28;45421;-68
2021/09/24 06:16:26;;;;;;;;;2.00;2.00;;;;;26.49;40.02;101778.50;5074753;27;45397;-68
2021/09/24 06:18:52;;;;;;;;;2.00;2.00;;;;;26.49;39.97;101773.97;5074493;27;45778;-69
2021/09/24 06:21:18;;;;;;;;;2.00;2.00;;;;;26.50;39.95;101777.47;5075722;27;45539;-69
2021/09/24 06:23:44;;;;;;;;;2.50;1.75;;;;;26.44;39.65;101765.69;5073080;27;45590;-69
2021/09/24 06:26:10;;;;;;;;;1.67;1.67;;;;;26.48;39.75;101775.00;5074722;28;45609;-68
2021/09/24 06:28:35;;;;;;;;;1.00;1.00;;;;;26.43;39.72;101772.03;5074683;28;45976;-68
2021/09/24 06:31:01;;;;;;;;;3.00;3.00;;;;;26.50;39.81;101780.97;5074122;27;45397;-68
2021/09/24 06:33:26;;;;;;;;;2.67;2.67;;;;;26.44;39.69;101772.91;5074494;27;45427;-67
2021/09/24 06:35:52;;;;;;;;;0.75;0.75;;;;;26.51;40.22;101789.81;5075294;27;45310;-67
2021/09/24 06:38:17;;;;;;;;;3.00;2.00;;;;;26.51;39.88;101782.63;5074513;27;46300;-68
2021/09/24 06:40:43;;;;;;;;;1.00;1.00;;;;;26.52;40.31;101783.44;5073813;28;45510;-69
2021/09/24 06:43:09;;;;;;;;;1.00;1.00;;;;;26.50;40.17;101775.63;5073768;27;45367;-67
2021/09/24 06:45:35;;;;;;;;;3.00;1.67;;;;;26.54;40.13;101780.59;5074426;27;45398;-67
2021/09/24 06:48:00;;;;;;;;;1.75;1.75;;;;;26.51;40.01;101768.47;5074117;27;46156;-67
2021/09/24 06:50:26;;;;;;;;;1.00;1.00;;;;;26.53;40.54;101777.09;5074318;27;45360;-68
2021/09/24 06:52:51;;;;;;;;;1.00;1.00;;;;;26.54;40.14;101776.09;5075696;28;45288;-67
2021/09/24 06:55:21;;;;;;;;;1.00;1.00;;;;;26.55;40.01;101782.22;5071701;27;45482;-67
2021/09/24 06:57:47;;;;;;;;;3.25;1.75;;;;;26.54;39.89;101772.59;5073454;27;46223;-67
2021/09/24 07:00:13;;;;;;;;;1.50;1.00;;;;;26.55;40.13;101785.72;5073776;27;45464;-68
2021/09/24 07:02:38;;;;;;;;;1.00;1.00;;;;;26.54;40.09;101786.75;5072523;27;45438;-67
2021/09/24 07:05:04;;;;;;;;;2.75;1.25;;;;;26.52;40.24;101786.94;5077707;27;45342;-67
2021/09/24 07:07:29;;;;;;;;;1.00;1.00;;;;;26.53;40.20;101790.44;5073653;27;45490;-68
2021/09/24 07:09:58;;;;;;;;;2.00;2.00;;;;;26.52;40.22;101797.63;5074026;27;45418;-67
2021/09/24 07:12:23;;;;;;;;;1.00;1.00;;;;;26.52;40.30;101800.28;5073962;27;45647;-68
2021/09/24 07:14:48;;;;;;;;;2.75;2.75;;;;;26.53;40.21;101803.78;5074146;27;45288;-69
2021/09/24 07:17:14;;;;;;;;;2.33;1.00;;;;;26.52;40.25;101802.94;5073208;28;45702;-68
2021/09/24 07:19:41;;;;;;;;;3.00;1.00;;;;;26.53;40.29;101801.13;5074664;28;45430;-68
2021/09/24 07:22:07;;;;;;;;;1.00;1.00;;;;;26.48;40.17;101785.66;5073396;27;45403;-68
2021/09/24 07:24:32;;;;;;;;;2.00;2.00;;;;;26.52;40.08;101802.94;5070785;28;45444;-68
2021/09/24 07:26:57;;;;;;;;;2.00;2.00;;;;;26.53;40.24;101806.44;5073425;27;46156;-67
2021/09/24 07:29:23;;;;;;;;;3.00;2.00;;;;;26.52;40.53;101800.28;5073940;27;45220;-68
2021/09/24 07:31:48;;;;;;;;;2.75;2.75;;;;;26.52;39.72;101802.13;5075413;27;45394;-68
2021/09/24 07:34:13;;;;;;;;;1.00;1.00;;;;;26.52;40.18;101802.94;5073524;27;45584;-68
2021/09/24 07:36:39;;;;;;;;;1.00;1.00;;;;;26.52;40.11;101804.78;5073077;27;45342;-68
2021/09/24 07:39:06;;;;;;;;;3.00;2.00;;;;;26.51;39.93;101805.81;5073506;27;45437;-68
2021/09/24 07:41:31;;;;;;;;;1.00;1.00;;;;;26.54;40.24;101807.28;5072734;28;45404;-68
2021/09/24 07:43:57;;;;;;;;;1.75;1.75;;;;;26.54;40.27;101804.63;5069211;28;45389;-68
2021/09/24 07:46:23;;;;;;;;;1.33;1.33;;;;;26.43;39.92;101785.38;5071387;28;46427;-68
2021/09/24 07:48:48;;;;;;;;;2.00;1.00;;;;;26.48;39.94;101801.69;5071058;28;45437;-68
2021/09/24 07:51:15;;;;;;;;;1.00;1.00;;;;;26.54;39.93;101805.44;5072984;28;45411;-68
2021/09/24 07:53:41;;;;;;;;;1.00;1.00;;;;;26.55;40.24;101804.41;5073658;27;45331;-68
2021/09/24 07:56:07;;;;;;;;;1.00;1.00;;;;;26.54;40.02;101805.44;5074656;27;45988;-68
2021/09/24 07:58:33;;;;;;;;;3.00;1.75;;;;;26.56;40.21;101802.56;5073154;27;45576;-68
2021/09/24 08:00:58;;;;;;;;;0.25;0.25;;;;;26.55;40.08;101801.75;5073111;27;45436;-69
2021/09/24 08:03:24;;;;;;;;;1.75;1.00;;;;;26.55;40.29;101799.06;5073113;28;45513;-68
2021/09/24 08:05:49;;;;;;;;;3.00;1.00;;;;;26.57;40.32;101801.56;5072760;27;47360;-67
2021/09/24 08:08:15;;;;;;;;;1.00;1.00;;;;;26.57;40.15;101802.38;5073967;27;45316;-68
2021/09/24 08:10:40;;;;;;;;;1.00;1.00;;;;;26.56;40.47;101798.06;5074400;28;45445;-68
2021/09/24 08:13:06;;;;;;;;;1.75;1.00;;;;;26.39;39.93;101760.91;5073067;27;45681;-68
2021/09/24 08:15:32;;;;;;;;;2.25;2.00;;;;;26.57;40.15;101798.91;5069849;28;47951;-68
2021/09/24 08:17:58;;;;;;;;;1.75;1.75;;;;;26.56;40.13;101790.06;5073103;27;45480;-68
2021/09/24 08:20:23;;;;;;;;;1.25;1.25;;;;;26.49;40.24;101786.50;5075216;27;45402;-68
2021/09/24 08:22:48;;;;;;;;;1.50;1.50;;;;;26.56;40.29;101797.25;5076371;28;45501;-68
2021/09/24 08:25:17;;;;;;;;;2.00;2.00;;;;;26.56;40.19;101794.56;5076174;27;45398;-68
2021/09/24 08:27:44;;;;;;;;;2.00;2.00;;;;;26.52;40.43;101786.09;5076198;27;45545;-68
2021/09/24 08:30:13;;;;;;;;;1.00;1.00;;;;;26.57;40.58;101789.03;5076566;27;45394;-68
2021/09/24 08:32:39;;;;;;;;;1.00;1.00;;;;;26.56;40.49;101781.22;5076326;28;45441;-67
2021/09/24 08:35:07;;;;;;;;;2.33;2.33;;;;;26.56;40.33;101790.06;5078049;27;46051;-68
2021/09/24 08:37:32;;;;;;;;;1.00;1.00;;;;;26.55;40.65;101783.06;5076358;28;45236;-69
2021/09/24 08:39:58;;;;;;;;;1.00;1.00;;;;;26.54;40.59;101791.28;5075963;27;45375;-68
2021/09/24 08:42:25;;;;;;;;;1.75;1.00;;;;;26.55;40.24;101793.75;5076377;27;45522;-68
2021/09/24 08:44:50;;;;;;;;;1.75;1.75;;;;;26.51;40.45;101785.31;5075375;27;47000;-68
2021/09/24 08:47:16;;;;;;;;;1.00;1.00;;;;;26.55;40.04;101788.41;5074894;28;45606;-68
2021/09/24 08:49:43;;;;;;;;;2.50;0.75;;;;;26.51;40.40;101789.81;5075068;28;45420;-68
2021/09/24 08:52:08;;;;;;;;;2.00;0.33;;;;;26.56;40.15;101797.25;5075210;27;45620;-68
2021/09/24 08:54:34;;;;;;;;;1.50;1.50;;;;;26.54;40.13;101792.09;5075861;27;46284;-68
2021/09/24 08:56:59;;;;;;;;;2.00;1.25;;;;;26.54;40.23;101792.09;5076095;27;45406;-68
2021/09/24 08:59:25;;;;;;;;;2.33;1.67;;;;;26.55;40.17;101790.25;5076183;27;45351;-68
2021/09/24 09:01:57;;;;;;;;;0.00;0.00;;;;;26.56;40.35;101794.56;5075949;28;45442;-68
2021/09/24 09:04:44;;;;;;;;;0.33;0.33;;;;;26.56;40.29;101798.06;5075630;27;46994;-68
2021/09/24 09:07:12;;;;;;;;;1.75;1.75;;;;;26.57;40.22;101798.91;5075598;27;45465;-68
2021/09/24 09:09:40;;;;;;;;;1.00;1.00;;;;;26.57;40.29;101801.56;5075680;27;45243;-68
2021/09/24 09:12:14;;;;;;;;;2.75;1.75;;;;;26.57;39.99;101798.91;5075762;27;45499;-68
2021/09/24 09:14:40;;;;;;;;;2.00;2.00;;;;;26.55;40.42;101798.25;5060155;28;46384;-68
2021/09/24 09:17:27;;;;;;;;;3.00;1.67;;;;;26.50;39.95;101788.13;5073991;27;45476;-68
2021/09/24 09:20:16;;;;;;;;;1.67;1.67;;;;;26.58;40.19;101806.72;5061835;28;45572;-69
2021/09/24 09:22:45;;;;;;;;;1.00;1.00;;;;;26.58;40.15;101805.88;5059343;28;45384;-68
2021/09/24 09:25:26;;;;;;;;;1.00;1.00;;;;;26.60;40.39;101803.84;5062804;28;45539;-68
2021/09/24 09:27:54;;;;;;;;;1.33;1.33;;;;;26.60;40.17;101811.84;5062866;28;45242;-69
2021/09/24 09:30:20;;;;;;;;;1.00;1.00;;;;;26.60;40.35;101809.19;5062570;28;45307;-69
2021/09/24 09:33:08;;;;;;;;;1.00;1.00;;;;;26.60;40.05;101803.84;5059851;28;45427;-68
2021/09/24 09:35:38;;;;;;;;;2.00;2.00;;;;;26.60;40.21;101799.34;5058193;28;46271;-69
2021/09/24 09:38:05;;;;;;;;;1.00;1.00;;;;;26.59;40.15;101803.03;5073097;28;45312;-68
2021/09/24 09:40:31;;;;;;;;;0.50;0.50;;;;;26.60;40.33;101817.19;5062835;28;45617;-68
2021/09/24 09:42:57;;;;;;;;;1.00;1.00;;;;;26.51;40.37;101800.47;5062502;28;45422;-69
2021/09/24 09:45:24;;;;;;;;;2.75;1.00;;;;;26.59;40.21;101808.38;5061239;28;45574;-68
2021/09/24 09:47:50;;;;;;;;;2.00;2.00;;;;;26.50;40.27;101801.47;5060099;28;45277;-68
2021/09/24 09:50:20;;;;;;;;;1.33;1.33;;;;;26.58;40.32;101809.38;5059647;27;45307;-68
2021/09/24 09:53:07;;;;;;;;;1.00;0.00;;;;;26.58;40.51;101812.06;5061148;27;45332;-68
2021/09/24 09:55:58;;;;;;;;;0.00;0.00;;;;;26.17;40.28;101747.53;5071560;28;48141;-68
2021/09/24 09:58:26;;;;;;;;;1.00;1.00;;;;;26.52;40.31;101808.28;5072032;28;45358;-68
2021/09/24 10:01:05;;;;;;;;;1.00;1.00;;;;;26.57;40.09;101812.25;5074583;27;45394;-69
2021/09/24 10:03:43;;;;;;;;;2.75;1.75;;;;;26.58;40.14;101805.88;5074088;27;45477;-68
2021/09/24 10:06:22;;;;;;;;;0.00;0.00;;;;;26.58;40.01;101803.22;5074594;28;46254;-68
2021/09/24 10:08:51;;;;;;;;;0.67;0.67;;;;;26.51;40.16;101790.63;5060169;28;45596;-69
2021/09/24 10:11:19;;;;;;;;;1.00;1.00;;;;;26.51;40.44;101789.81;5075638;27;45393;-69
2021/09/24 10:14:00;;;;;;;;;1.75;1.75;;;;;26.57;40.30;101791.72;5075143;28;45848;-68
2021/09/24 10:16:28;;;;;;;;;1.00;1.00;;;;;26.58;40.08;101796.03;5073751;28;46185;-68
2021/09/24 10:18:54;;;;;;;;;0.33;0.33;;;;;26.47;40.52;101776.00;5068219;27;46197;-68
2021/09/24 10:21:20;;;;;;;;;3.33;1.00;;;;;26.49;40.18;101775.84;5075093;27;45445;-67
2021/09/24 10:23:46;;;;;;;;;1.00;1.00;;;;;26.51;39.61;101787.97;5076452;27;45506;-67
2021/09/24 10:26:35;;;;;;;;;1.00;0.67;;;;;26.45;39.70;101787.88;5075936;27;45351;-66
2021/09/24 10:29:06;;;;;;;;;2.00;2.00;;;;;26.39;39.78;101792.09;5075986;27;45484;-67
2021/09/24 10:31:42;;;;;;;;;2.00;1.00;;;;;26.32;39.86;101783.19;5069013;27;45455;-67
2021/09/24 10:34:08;;;;;;;;;2.00;2.00;;;;;26.27;39.83;101784.56;5075174;27;45449;-67
2021/09/24 10:36:41;;;;;;;;;1.25;1.25;;;;;26.24;40.19;101782.28;5070435;27;47238;-67
2021/09/24 10:39:31;;;;;;;;;2.25;2.25;;;;;26.21;39.91;101784.47;5073974;27;45557;-67
2021/09/24 10:42:15;;;;;;;;;2.50;2.50;;;;;26.17;40.14;101774.19;5074829;27;45390;-66
2021/09/24 10:45:05;;;;;;;;;3.75;2.75;;;;;26.14;39.86;101782.56;5070259;27;48497;-68
2021/09/24 10:47:55;;;;;;;;;2.00;2.00;;;;;26.06;39.75;101772.84;5070099;27;46982;-67
2021/09/24 10:50:32;;;;;;;;;3.00;3.00;;;;;26.02;39.94;101776.06;5072776;27;45507;-67
2021/09/24 10:53:10;;;;;;;;;3.00;3.00;;;;;25.97;40.15;101779.25;5074895;27;45417;-67
2021/09/24 10:55:46;;;;;;;;;2.75;2.75;;;;;25.94;40.21;101780.44;5075613;27;45411;-67
2021/09/24 10:58:26;;;;;;;;;2.00;2.00;;;;;25.93;40.34;101792.16;5072632;27;48605;-67
2021/09/24 11:01:00;;;;;;;;;4.00;2.50;;;;;25.92;40.10;101777.16;5070259;27;45494;-67
2021/09/24 11:03:28;;;;;;;;;2.50;2.50;;;;;25.90;40.10;101775.69;5072196;27;45697;-67
2021/09/24 11:06:02;;;;;;;;;3.75;3.00;;;;;25.81;40.14;101757.13;5074340;27;46068;-67
2021/09/24 11:08:37;;;;;;;;;1.00;1.00;;;;;25.85;40.31;101768.25;5072517;27;46241;-67
2021/09/24 11:11:03;;;;;;;;;3.00;3.00;;;;;25.83;40.35;101765.75;5077005;27;45410;-67
2021/09/24 11:13:29;;;;;;;;;3.75;3.00;;;;;25.52;40.40;101724.94;5074353;27;45502;-67
2021/09/24 11:16:00;;;;;;;;;3.00;3.00;;;;;25.78;40.64;101762.00;5073851;27;45611;-67
2021/09/24 11:18:49;;;;;;;;;5.00;2.25;;;;;25.76;40.38;101753.34;5069964;27;46995;-68
2021/09/24 11:21:20;;;;;;;;;4.00;4.00;;;;;25.74;40.67;101746.34;5069027;28;45478;-68
2021/09/24 11:23:47;;;;;;;;;3.25;2.25;;;;;25.76;40.47;101748.88;5071740;28;45371;-68
2021/09/24 11:26:25;;;;;;;;;4.00;3.00;;;;;25.73;40.73;101731.41;5058493;27;45345;-69